KIMM

Immokalee Regional Airport

Immokalee, Florida, USA
METAR KIMM 211535Z AUTO VRB05G12KT 10SM CLR 11/03 A3030 RMK A01
Observed Flight Rules
Jan-21 @ 15:35 UTC (24 minutes ago) Visual Flight Rules
Wind Visibility Clouds
Variable at 5 knots
 Gusting to 12 knots
10 miles
  • Clear skies
Temperatures Readings
Current 11°C / 52°F
Dewpoint 3°C / 37°F
Humidity 58%
Altimeter 30.3" Hg
Pressure 1026.12 hPa
Elevation 12
METAR KIMM 211535Z AUTO VRB05G12KT 10SM CLR 11/03 A3030 RMK A01
Observed Flight Rules
Jan-21 @ 15:35 UTC
(24 minutes ago)
VFR
Wind Visibility
Variable at 5 knots
 Gusting to 12 knots
10 miles
Clouds
  • Clear skies
Temperature Dewpoint
11°C / 52°F 3°C / 37°F
Humidity Altimeter Pressure
58% 30.3" Hg 1026.12 hPa